Time;durP1;ratioP1;P1;durP2;ratioP2;P2;SDS_P1;SDS_P2;PMS_P1;PMS_P2;Temp;Humidity;BMP_temperature;BMP_pressure;BME280_temperature;BME280_humidity;BME280_pressure;Samples;Min_cycle;Max_cycle;Signal;HPM_P1;HPM_P2
2023/09/13 00:00:20;;;;;;;4.65;3.50;;;;;;;;;;6259320;28;20542;-68
2023/09/13 00:03:24;;;;;;;4.35;3.90;;;;;;;;;;6259862;28;20288;-68
2023/09/13 00:06:27;;;;;;;5.47;3.92;;;;;;;;;;6274499;28;20287;-67
2023/09/13 00:09:33;;;;;;;4.45;4.10;;;;;;;;;;6258907;28;20311;-68
2023/09/13 00:12:36;;;;;;;4.10;3.60;;;;;;;;;;6259389;28;20291;-70
2023/09/13 00:15:44;;;;;;;3.92;3.60;;;;;;;;;;6258904;28;20243;-69
2023/09/13 00:18:48;;;;;;;4.05;3.75;;;;;;;;;;6258695;28;20327;-68
2023/09/13 00:21:52;;;;;;;3.95;3.65;;;;;;;;;;6258670;28;20319;-68
2023/09/13 00:24:57;;;;;;;6.97;3.60;;;;;;;;;;6258635;28;20299;-69
2023/09/13 00:28:01;;;;;;;4.07;3.75;;;;;;;;;;6258687;28;20291;-69
2023/09/13 00:31:05;;;;;;;7.57;3.80;;;;;;;;;;6258339;28;20296;-68
2023/09/13 00:34:09;;;;;;;3.85;3.40;;;;;;;;;;6256347;28;20631;-68
2023/09/13 00:37:13;;;;;;;5.85;3.40;;;;;;;;;;6258782;28;20324;-68
2023/09/13 00:40:19;;;;;;;3.90;3.67;;;;;;;;;;6256378;28;20299;-67
2023/09/13 00:43:22;;;;;;;3.50;3.33;;;;;;;;;;6257217;28;20299;-70
2023/09/13 00:46:26;;;;;;;3.55;3.35;;;;;;;;;;6257129;28;20327;-69
2023/09/13 00:49:30;;;;;;;3.65;3.40;;;;;;;;;;6259190;28;20299;-67
2023/09/13 00:52:34;;;;;;;3.60;3.40;;;;;;;;;;6258576;28;20362;-67
2023/09/13 00:55:40;;;;;;;4.50;3.42;;;;;;;;;;6256798;28;20295;-69
2023/09/13 00:58:44;;;;;;;3.20;3.08;;;;;;;;;;6256551;28;20291;-68
2023/09/13 01:01:48;;;;;;;3.25;3.15;;;;;;;;;;6273676;28;20299;-68
2023/09/13 01:04:53;;;;;;;3.33;3.13;;;;;;;;;;6256937;28;20569;-69
2023/09/13 01:07:57;;;;;;;5.25;3.30;;;;;;;;;;6256773;28;20339;-69
2023/09/13 01:11:02;;;;;;;3.28;3.15;;;;;;;;;;6257189;28;20310;-67
2023/09/13 01:14:06;;;;;;;4.85;2.70;;;;;;;;;;6257211;28;20304;-70
2023/09/13 01:17:14;;;;;;;4.40;3.33;;;;;;;;;;6258045;28;20311;-68
2023/09/13 01:20:23;;;;;;;9.75;3.50;;;;;;;;;;6257363;28;20327;-69
2023/09/13 01:23:45;;;;;;;3.35;3.10;;;;;;;;;;6257449;28;20299;-68
2023/09/13 01:27:08;;;;;;;3.45;3.25;;;;;;;;;;6255648;28;20497;-68
2023/09/13 01:30:14;;;;;;;3.30;3.00;;;;;;;;;;6254917;28;20303;-68
2023/09/13 01:33:18;;;;;;;3.78;3.28;;;;;;;;;;6257389;28;20306;-67
2023/09/13 01:36:21;;;;;;;3.88;3.40;;;;;;;;;;6255711;28;20319;-68
2023/09/13 01:39:25;;;;;;;3.38;3.28;;;;;;;;;;6255354;28;20599;-67
2023/09/13 01:42:31;;;;;;;3.63;3.47;;;;;;;;;;6255962;28;20432;-68
2023/09/13 01:45:37;;;;;;;5.35;3.47;;;;;;;;;;6255459;28;20572;-68
2023/09/13 01:48:41;;;;;;;4.97;3.60;;;;;;;;;;6255986;28;20436;-68
2023/09/13 01:51:46;;;;;;;5.38;3.40;;;;;;;;;;6272900;28;20299;-67
2023/09/13 01:54:50;;;;;;;3.42;3.20;;;;;;;;;;6257002;28;20402;-68
2023/09/13 01:57:54;;;;;;;3.55;3.28;;;;;;;;;;6256852;28;20291;-68
2023/09/13 02:00:59;;;;;;;3.17;2.95;;;;;;;;;;6255661;28;20319;-67
2023/09/13 02:04:05;;;;;;;6.18;3.10;;;;;;;;;;6256567;28;20310;-68
2023/09/13 02:07:09;;;;;;;3.13;2.80;;;;;;;;;;6256978;28;20307;-67
2023/09/13 02:10:13;;;;;;;3.08;2.88;;;;;;;;;;6254847;28;20403;-67
2023/09/13 02:13:17;;;;;;;3.13;2.80;;;;;;;;;;6257113;28;20327;-68
2023/09/13 02:16:22;;;;;;;2.80;2.60;;;;;;;;;;6256856;28;20295;-68
2023/09/13 02:19:26;;;;;;;2.78;2.67;;;;;;;;;;6271538;28;20383;-68
2023/09/13 02:22:31;;;;;;;5.22;3.40;;;;;;;;;;6256804;28;20499;-67
2023/09/13 02:25:38;;;;;;;3.33;3.00;;;;;;;;;;6254649;28;20612;-67
2023/09/13 02:28:41;;;;;;;3.78;3.10;;;;;;;;;;6271077;28;20702;-67
2023/09/13 02:31:46;;;;;;;3.25;2.92;;;;;;;;;;6256482;28;20576;-68
2023/09/13 02:34:50;;;;;;;3.45;3.13;;;;;;;;;;6255920;28;20307;-67
2023/09/13 02:37:55;;;;;;;3.53;3.20;;;;;;;;;;6256561;28;20311;-69
2023/09/13 02:40:59;;;;;;;3.35;3.10;;;;;;;;;;6254483;28;20307;-67
2023/09/13 02:44:03;;;;;;;2.90;2.70;;;;;;;;;;6256111;28;20304;-68
2023/09/13 02:47:08;;;;;;;4.25;3.28;;;;;;;;;;6255399;28;20307;-69
2023/09/13 02:50:12;;;;;;;4.80;3.00;;;;;;;;;;6255168;28;20287;-68
2023/09/13 02:53:16;;;;;;;3.30;3.10;;;;;;;;;;6256728;28;20312;-67
2023/09/13 02:56:20;;;;;;;3.20;2.97;;;;;;;;;;6255898;28;20305;-68
2023/09/13 02:59:25;;;;;;;3.65;3.40;;;;;;;;;;6254534;28;20296;-68
2023/09/13 03:02:31;;;;;;;3.10;2.90;;;;;;;;;;6254581;28;20296;-67
2023/09/13 03:05:34;;;;;;;3.15;2.95;;;;;;;;;;6254384;28;20299;-68
2023/09/13 03:08:38;;;;;;;4.60;3.08;;;;;;;;;;6256440;28;20296;-68
2023/09/13 03:11:43;;;;;;;3.03;2.90;;;;;;;;;;6258708;28;20307;-70
2023/09/13 03:14:47;;;;;;;7.13;3.53;;;;;;;;;;6260623;28;20307;-68
2023/09/13 03:17:52;;;;;;;8.30;5.10;;;;;;;;;;6258587;28;20303;-67
2023/09/13 03:20:56;;;;;;;7.65;4.88;;;;;;;;;;6274955;28;20296;-68
2023/09/13 03:24:00;;;;;;;7.43;4.95;;;;;;;;;;6259360;28;20308;-69
2023/09/13 03:27:04;;;;;;;3.95;3.60;;;;;;;;;;6259603;28;20451;-67
2023/09/13 03:30:10;;;;;;;6.13;3.00;;;;;;;;;;6275181;28;20565;-69
2023/09/13 03:33:15;;;;;;;3.90;3.55;;;;;;;;;;6258618;28;20299;-67
2023/09/13 03:36:20;;;;;;;3.55;3.30;;;;;;;;;;6260200;28;20426;-69
2023/09/13 03:39:28;;;;;;;3.22;3.10;;;;;;;;;;6256912;28;20483;-68
2023/09/13 03:42:32;;;;;;;3.72;3.42;;;;;;;;;;6258859;28;20581;-67
2023/09/13 03:45:36;;;;;;;5.40;3.65;;;;;;;;;;6273953;28;20299;-68
2023/09/13 03:48:42;;;;;;;3.80;3.70;;;;;;;;;;6257965;28;20299;-69
2023/09/13 03:51:48;;;;;;;3.63;3.53;;;;;;;;;;6258771;28;20303;-69
2023/09/13 03:54:52;;;;;;;4.22;3.95;;;;;;;;;;6275173;28;20304;-68
2023/09/13 03:57:56;;;;;;;5.28;4.78;;;;;;;;;;6259133;28;20284;-69
2023/09/13 04:00:59;;;;;;;7.93;4.88;;;;;;;;;;6258333;28;20299;-67
2023/09/13 04:04:05;;;;;;;4.57;4.40;;;;;;;;;;6257780;28;20296;-67
2023/09/13 04:07:09;;;;;;;5.22;4.80;;;;;;;;;;6275166;28;20463;-68
2023/09/13 04:10:13;;;;;;;5.65;4.93;;;;;;;;;;6257677;28;20296;-68
2023/09/13 04:13:17;;;;;;;5.15;4.78;;;;;;;;;;6258808;28;20301;-69
2023/09/13 04:16:21;;;;;;;5.00;4.70;;;;;;;;;;6259269;28;20292;-68
2023/09/13 04:19:26;;;;;;;5.80;4.95;;;;;;;;;;6257335;28;20295;-67
2023/09/13 04:22:31;;;;;;;5.45;4.93;;;;;;;;;;6273648;28;20299;-67
2023/09/13 04:25:36;;;;;;;6.38;5.88;;;;;;;;;;6273410;28;20511;-67
2023/09/13 04:28:42;;;;;;;6.38;5.93;;;;;;;;;;6256827;28;20299;-68
2023/09/13 04:31:46;;;;;;;6.55;5.95;;;;;;;;;;6257254;28;20299;-69
2023/09/13 04:34:55;;;;;;;6.13;5.68;;;;;;;;;;6256226;28;20339;-68
2023/09/13 04:37:58;;;;;;;6.88;6.30;;;;;;;;;;6257196;28;20415;-67
2023/09/13 04:41:03;;;;;;;7.60;6.50;;;;;;;;;;6256890;28;20314;-68
2023/09/13 04:44:07;;;;;;;9.73;6.68;;;;;;;;;;6256524;28;20828;-68
2023/09/13 04:47:11;;;;;;;9.13;6.60;;;;;;;;;;6257388;28;20299;-67
2023/09/13 04:50:16;;;;;;;7.32;6.72;;;;;;;;;;6256782;28;20300;-67
2023/09/13 04:53:21;;;;;;;7.50;6.72;;;;;;;;;;6256773;28;20323;-67
2023/09/13 04:56:25;;;;;;;7.50;6.80;;;;;;;;;;6257133;28;20569;-68
2023/09/13 04:59:43;;;;;;;8.30;6.78;;;;;;;;;;6273427;28;20332;-68
2023/09/13 05:02:48;;;;;;;6.32;5.72;;;;;;;;;;6256439;28;20491;-68
2023/09/13 05:05:53;;;;;;;6.63;6.18;;;;;;;;;;6258481;28;20299;-70
2023/09/13 05:08:57;;;;;;;6.35;5.85;;;;;;;;;;6257749;28;20311;-69
2023/09/13 05:12:01;;;;;;;6.03;5.72;;;;;;;;;;6257256;28;20284;-68
2023/09/13 05:15:05;;;;;;;8.15;6.15;;;;;;;;;;6257621;28;20303;-68
2023/09/13 05:18:09;;;;;;;6.50;6.00;;;;;;;;;;6257233;28;20592;-68
2023/09/13 05:21:14;;;;;;;6.93;5.20;;;;;;;;;;6256327;28;20451;-68
2023/09/13 05:24:18;;;;;;;4.97;4.57;;;;;;;;;;6257484;28;20311;-68
2023/09/13 05:27:22;;;;;;;5.10;4.70;;;;;;;;;;6257982;28;20499;-67
2023/09/13 05:30:30;;;;;;;4.60;4.22;;;;;;;;;;6257191;28;20308;-68
2023/09/13 05:33:34;;;;;;;3.90;3.63;;;;;;;;;;6239522;28;20309;-67
2023/09/13 05:36:41;;;;;;;4.50;4.13;;;;;;;;;;6232552;28;20511;-70
2023/09/13 05:39:45;;;;;;;4.10;3.80;;;;;;;;;;6230428;28;20301;-69
2023/09/13 05:42:48;;;;;;;3.88;3.55;;;;;;;;;;6231859;28;20299;-70
2023/09/13 05:45:52;;;;;;;3.70;3.25;;;;;;;;;;6232757;28;20292;-69
2023/09/13 05:48:57;;;;;;;2.78;2.75;;;;;;;;;;6232341;28;20316;-71
2023/09/13 05:52:02;;;;;;;3.33;3.13;;;;;;;;;;6232319;28;20300;-69
2023/09/13 05:55:06;;;;;;;3.20;3.00;;;;;;;;;;6246882;28;20320;-69
2023/09/13 05:58:10;;;;;;;4.60;3.20;;;;;;;;;;6246134;28;20331;-69
2023/09/13 06:01:14;;;;;;;3.30;3.15;;;;;;;;;;6232373;28;20296;-68
2023/09/13 06:04:18;;;;;;;3.08;2.83;;;;;;;;;;6232182;28;20295;-68
2023/09/13 06:07:23;;;;;;;5.93;3.30;;;;;;;;;;6232577;28;20292;-68
2023/09/13 06:10:27;;;;;;;4.10;3.60;;;;;;;;;;6238855;28;20307;-70
2023/09/13 06:13:31;;;;;;;7.10;4.05;;;;;;;;;;6256500;28;20311;-69
2023/09/13 06:16:35;;;;;;;3.83;3.60;;;;;;;;;;6257021;28;20334;-70
2023/09/13 06:19:39;;;;;;;3.53;3.33;;;;;;;;;;6256275;28;20340;-68
2023/09/13 06:22:44;;;;;;;3.22;3.03;;;;;;;;;;6256300;28;20307;-68
2023/09/13 06:25:48;;;;;;;4.60;3.40;;;;;;;;;;6257023;28;20313;-66
2023/09/13 06:28:52;;;;;;;4.55;3.10;;;;;;;;;;6254989;28;20306;-68
2023/09/13 06:31:56;;;;;;;5.32;2.70;;;;;;;;;;6257021;28;20298;-69
2023/09/13 06:35:10;;;;;;;2.67;2.58;;;;;;;;;;6255821;28;20251;-68
2023/09/13 06:38:20;;;;;;;2.92;2.72;;;;;;;;;;6255850;28;20300;-69
2023/09/13 06:41:24;;;;;;;3.08;2.80;;;;;;;;;;6254709;28;20330;-67
2023/09/13 06:44:29;;;;;;;3.22;2.50;;;;;;;;;;6256050;28;20311;-68
2023/09/13 06:47:47;;;;;;;2.88;2.78;;;;;;;;;;6261056;28;20303;-69
2023/09/13 06:50:52;;;;;;;4.72;2.35;;;;;;;;;;6261476;28;20389;-68
2023/09/13 06:54:18;;;;;;;2.45;2.35;;;;;;;;;;6259717;28;20320;-68
2023/09/13 06:57:26;;;;;;;2.58;2.55;;;;;;;;;;6260961;28;20291;-67
2023/09/13 07:00:30;;;;;;;3.45;3.05;;;;;;;;;;6260590;28;20367;-67
2023/09/13 07:03:51;;;;;;;2.63;2.40;;;;;;;;;;6260112;28;20291;-67
2023/09/13 07:07:02;;;;;;;2.67;2.55;;;;;;;;;;6260963;28;20480;-69
2023/09/13 07:10:08;;;;;;;3.20;3.10;;;;;;;;;;6260159;28;20307;-69
2023/09/13 07:13:12;;;;;;;3.22;3.05;;;;;;;;;;6260419;28;20498;-70
2023/09/13 07:16:16;;;;;;;3.28;3.17;;;;;;;;;;6260794;28;20299;-68
2023/09/13 07:19:20;;;;;;;3.28;3.17;;;;;;;;;;6260152;28;20383;-68
2023/09/13 07:22:24;;;;;;;3.08;2.97;;;;;;;;;;6260411;28;20296;-69
2023/09/13 07:25:29;;;;;;;3.33;3.13;;;;;;;;;;6260390;28;20307;-69
2023/09/13 07:28:33;;;;;;;2.85;2.75;;;;;;;;;;6260294;28;20607;-69
2023/09/13 07:31:36;;;;;;;3.33;2.92;;;;;;;;;;6260677;28;20575;-68
2023/09/13 07:34:40;;;;;;;3.92;3.30;;;;;;;;;;6259865;28;20600;-68
2023/09/13 07:37:44;;;;;;;3.70;3.45;;;;;;;;;;6259565;28;20295;-68
2023/09/13 07:40:49;;;;;;;5.80;2.63;;;;;;;;;;6258538;28;20303;-71
2023/09/13 07:43:53;;;;;;;2.75;2.05;;;;;;;;;;6259640;28;20307;-68
2023/09/13 07:46:57;;;;;;;2.17;2.08;;;;;;;;;;6260053;28;20299;-67
2023/09/13 07:50:02;;;;;;;2.25;2.25;;;;;;;;;;6259523;28;20323;-68
2023/09/13 07:53:06;;;;;;;1.83;1.83;;;;;;;;;;6259588;28;20300;-67
2023/09/13 07:56:11;;;;;;;1.90;1.80;;;;;;;;;;6260032;28;20299;-67
2023/09/13 07:59:17;;;;;;;2.00;2.00;;;;;;;;;;6251096;28;20300;-68
2023/09/13 08:02:21;;;;;;;1.60;1.50;;;;;;;;;;6235475;28;20332;-67
2023/09/13 08:05:25;;;;;;;1.30;1.30;;;;;;;;;;6234837;28;20312;-69
2023/09/13 08:08:30;;;;;;;1.40;1.30;;;;;;;;;;6234503;28;20295;-69
2023/09/13 08:11:36;;;;;;;1.52;1.38;;;;;;;;;;6252588;28;20315;-68
2023/09/13 08:14:39;;;;;;;1.40;1.40;;;;;;;;;;6259042;28;20299;-69
2023/09/13 08:17:45;;;;;;;1.27;1.20;;;;;;;;;;6259009;28;20303;-69
2023/09/13 08:20:50;;;;;;;1.45;1.42;;;;;;;;;;6259349;28;20299;-67
2023/09/13 08:23:53;;;;;;;1.80;1.75;;;;;;;;;;6258805;28;20299;-67
2023/09/13 08:26:59;;;;;;;1.10;1.10;;;;;;;;;;6259418;28;20636;-68
2023/09/13 08:30:04;;;;;;;1.27;1.27;;;;;;;;;;6257976;28;20304;-68
2023/09/13 08:33:10;;;;;;;1.55;1.42;;;;;;;;;;6258615;28;20307;-69
2023/09/13 08:36:14;;;;;;;1.20;1.20;;;;;;;;;;6258691;28;20328;-68
2023/09/13 08:39:18;;;;;;;1.45;1.35;;;;;;;;;;6256433;28;20312;-68
2023/09/13 08:42:23;;;;;;;1.70;1.60;;;;;;;;;;6258957;28;20295;-68
2023/09/13 08:45:27;;;;;;;1.45;1.45;;;;;;;;;;6258067;28;20292;-69
2023/09/13 08:48:32;;;;;;;1.52;1.50;;;;;;;;;;6273555;28;20551;-68
2023/09/13 08:51:37;;;;;;;1.33;1.30;;;;;;;;;;6257651;28;20303;-68
2023/09/13 08:54:42;;;;;;;2.83;1.27;;;;;;;;;;6257801;28;20315;-69
2023/09/13 08:58:02;;;;;;;1.30;1.30;;;;;;;;;;6257588;28;20295;-68
2023/09/13 09:01:09;;;;;;;1.77;1.67;;;;;;;;;;6258356;28;20299;-68
2023/09/13 09:04:14;;;;;;;1.45;1.38;;;;;;;;;;6257984;28;20295;-69
2023/09/13 09:07:20;;;;;;;1.30;1.30;;;;;;;;;;6257436;28;20332;-68
2023/09/13 09:10:24;;;;;;;1.20;1.20;;;;;;;;;;6257557;28;20305;-70
2023/09/13 09:13:31;;;;;;;1.60;1.50;;;;;;;;;;6257636;28;20352;-69
2023/09/13 09:16:35;;;;;;;1.30;1.30;;;;;;;;;;6257891;28;20323;-69
2023/09/13 09:19:39;;;;;;;1.48;1.48;;;;;;;;;;6258057;28;20293;-69
2023/09/13 09:22:44;;;;;;;1.40;1.40;;;;;;;;;;6258406;28;20303;-68
2023/09/13 09:25:49;;;;;;;1.45;1.35;;;;;;;;;;6257861;28;20355;-68
2023/09/13 09:28:55;;;;;;;1.63;1.50;;;;;;;;;;6272535;28;20303;-71
2023/09/13 09:31:59;;;;;;;1.35;1.35;;;;;;;;;;6257491;28;20581;-67
2023/09/13 09:35:05;;;;;;;1.48;1.33;;;;;;;;;;6256871;28;20313;-69
2023/09/13 09:38:21;;;;;;;1.70;1.30;;;;;;;;;;6256940;28;20291;-69
2023/09/13 09:41:31;;;;;;;1.30;1.30;;;;;;;;;;6255446;28;20323;-69
2023/09/13 09:44:37;;;;;;;1.33;1.20;;;;;;;;;;6271286;28;20498;-68
2023/09/13 09:47:41;;;;;;;3.53;1.60;;;;;;;;;;6257046;28;20311;-67
2023/09/13 09:50:46;;;;;;;1.55;1.55;;;;;;;;;;6257349;28;20312;-69
2023/09/13 09:53:51;;;;;;;2.03;2.03;;;;;;;;;;6256871;28;20307;-69
2023/09/13 09:56:54;;;;;;;1.30;1.30;;;;;;;;;;6257150;28;20303;-67
2023/09/13 10:00:01;;;;;;;1.48;1.48;;;;;;;;;;6255404;28;20315;-70
2023/09/13 10:03:15;;;;;;;1.40;1.40;;;;;;;;;;6255820;28;20295;-68
2023/09/13 10:06:19;;;;;;;1.50;1.50;;;;;;;;;;6257167;28;20584;-70
2023/09/13 10:09:23;;;;;;;2.60;1.50;;;;;;;;;;6256312;28;20291;-68
2023/09/13 10:12:26;;;;;;;1.20;1.20;;;;;;;;;;6232305;28;20297;-69
2023/09/13 10:15:32;;;;;;;1.30;1.30;;;;;;;;;;6232134;28;20569;-68
2023/09/13 10:18:42;;;;;;;1.42;1.40;;;;;;;;;;6232256;28;20300;-70
2023/09/13 10:21:46;;;;;;;1.85;1.70;;;;;;;;;;6237088;28;20292;-68
2023/09/13 10:24:52;;;;;;;1.10;1.10;;;;;;;;;;6237165;28;20300;-70
2023/09/13 10:27:57;;;;;;;1.23;1.20;;;;;;;;;;6236646;28;20296;-70
2023/09/13 10:31:03;;;;;;;1.10;1.10;;;;;;;;;;6236890;28;20512;-67
2023/09/13 10:34:09;;;;;;;1.17;1.17;;;;;;;;;;6236407;28;20296;-68
2023/09/13 10:37:21;;;;;;;1.38;1.30;;;;;;;;;;6236984;28;20312;-67
2023/09/13 10:40:32;;;;;;;1.20;1.20;;;;;;;;;;6234740;28;20312;-69
2023/09/13 10:43:38;;;;;;;1.20;1.20;;;;;;;;;;6242932;28;20372;-68
2023/09/13 10:46:43;;;;;;;1.20;1.20;;;;;;;;;;6276453;28;20437;-67
2023/09/13 10:49:48;;;;;;;1.50;1.50;;;;;;;;;;6261362;28;20307;-67
2023/09/13 10:52:52;;;;;;;1.63;1.60;;;;;;;;;;6276164;28;20291;-68
2023/09/13 10:55:57;;;;;;;1.27;1.27;;;;;;;;;;6261175;28;20578;-69
2023/09/13 10:59:02;;;;;;;2.38;1.40;;;;;;;;;;6260715;28;20292;-69
2023/09/13 11:02:08;;;;;;;1.38;1.27;;;;;;;;;;6261274;28;20296;-69
2023/09/13 11:05:13;;;;;;;1.40;1.40;;;;;;;;;;6260851;28;20307;-70
2023/09/13 11:08:27;;;;;;;1.63;1.50;;;;;;;;;;6260261;28;20614;-68
2023/09/13 11:11:31;;;;;;;3.03;1.70;;;;;;;;;;6260843;28;20319;-69
2023/09/13 11:14:35;;;;;;;2.00;2.00;;;;;;;;;;6259896;28;20592;-68
2023/09/13 11:17:43;;;;;;;1.50;1.50;;;;;;;;;;6260367;28;20309;-68
2023/09/13 11:20:47;;;;;;;1.27;1.27;;;;;;;;;;6260355;28;20307;-69
2023/09/13 11:23:52;;;;;;;1.55;1.52;;;;;;;;;;6260181;28;20300;-68
2023/09/13 11:27:10;;;;;;;1.58;1.58;;;;;;;;;;6260759;28;20324;-71
2023/09/13 11:30:14;;;;;;;1.80;1.70;;;;;;;;;;6258604;28;20296;-68
2023/09/13 11:33:19;;;;;;;1.90;1.80;;;;;;;;;;6259320;28;20288;-69
2023/09/13 11:36:25;;;;;;;3.45;1.90;;;;;;;;;;6260593;28;20299;-68
2023/09/13 11:39:29;;;;;;;2.35;1.80;;;;;;;;;;6273649;28;20433;-70
2023/09/13 11:42:33;;;;;;;1.40;1.30;;;;;;;;;;6260241;28;20296;-69
2023/09/13 11:45:39;;;;;;;2.15;1.23;;;;;;;;;;6259195;28;20303;-69
2023/09/13 11:48:52;;;;;;;3.40;1.73;;;;;;;;;;6259586;28;20296;-68
2023/09/13 11:52:04;;;;;;;1.33;1.30;;;;;;;;;;6260178;28;20295;-69
2023/09/13 11:55:28;;;;;;;2.20;1.40;;;;;;;;;;6259782;28;20292;-69
2023/09/13 11:58:36;;;;;;;1.30;1.30;;;;;;;;;;6259300;28;20303;-69
2023/09/13 12:01:57;;;;;;;1.20;1.20;;;;;;;;;;6260078;28;20316;-70
2023/09/13 12:05:05;;;;;;;1.35;1.25;;;;;;;;;;6274131;28;20310;-69
2023/09/13 12:08:27;;;;;;;1.40;1.40;;;;;;;;;;6259402;28;20291;-69
2023/09/13 12:11:33;;;;;;;2.75;1.75;;;;;;;;;;6260306;28;20332;-68
2023/09/13 12:14:41;;;;;;;1.65;1.65;;;;;;;;;;6258944;28;20300;-69
2023/09/13 12:17:48;;;;;;;1.40;1.40;;;;;;;;;;6259086;28;20336;-68
2023/09/13 12:20:56;;;;;;;1.50;1.40;;;;;;;;;;6259651;28;20299;-69
2023/09/13 12:24:00;;;;;;;1.20;1.20;;;;;;;;;;6258379;28;20303;-68
2023/09/13 12:27:07;;;;;;;1.70;1.55;;;;;;;;;;6259547;28;20565;-68
2023/09/13 12:30:17;;;;;;;1.20;1.20;;;;;;;;;;6274512;28;20795;-67
2023/09/13 12:33:23;;;;;;;1.30;1.20;;;;;;;;;;6258510;28;20299;-69
2023/09/13 12:36:28;;;;;;;1.35;1.35;;;;;;;;;;6259185;28;20597;-69
2023/09/13 12:39:32;;;;;;;1.00;1.00;;;;;;;;;;6256610;28;20295;-67
2023/09/13 12:42:38;;;;;;;1.10;1.10;;;;;;;;;;6258067;28;20299;-67
2023/09/13 12:45:43;;;;;;;1.02;1.02;;;;;;;;;;6258623;28;20439;-68
2023/09/13 12:48:46;;;;;;;1.20;1.20;;;;;;;;;;6258292;28;20299;-70
2023/09/13 12:51:54;;;;;;;0.98;0.98;;;;;;;;;;6258739;28;20299;-69
2023/09/13 12:54:58;;;;;;;1.08;1.08;;;;;;;;;;6258208;28;20303;-70
2023/09/13 12:58:04;;;;;;;1.20;1.20;;;;;;;;;;6257837;28;20301;-69
2023/09/13 13:01:09;;;;;;;2.13;1.20;;;;;;;;;;6258501;28;20604;-70
2023/09/13 13:04:13;;;;;;;1.73;1.30;;;;;;;;;;6257737;28;20499;-69
2023/09/13 13:07:27;;;;;;;1.85;1.20;;;;;;;;;;6258658;28;20452;-68
2023/09/13 13:10:32;;;;;;;1.23;1.23;;;;;;;;;;6257928;28;20315;-68
2023/09/13 13:13:37;;;;;;;1.67;1.40;;;;;;;;;;6257715;28;20295;-69
2023/09/13 13:16:42;;;;;;;1.63;1.50;;;;;;;;;;6258125;28;20303;-71
2023/09/13 13:19:50;;;;;;;1.40;1.40;;;;;;;;;;6257732;28;20391;-70
2023/09/13 13:23:01;;;;;;;1.20;1.20;;;;;;;;;;6257773;28;20300;-70
2023/09/13 13:26:05;;;;;;;1.48;1.38;;;;;;;;;;6257904;28;20382;-68
2023/09/13 13:29:10;;;;;;;1.10;1.10;;;;;;;;;;6257619;28;20304;-69
2023/09/13 13:32:13;;;;;;;1.20;1.20;;;;;;;;;;6257942;28;20304;-70
2023/09/13 13:35:17;;;;;;;1.15;1.15;;;;;;;;;;6208451;28;20300;-68
2023/09/13 13:38:22;;;;;;;1.40;1.30;;;;;;;;;;6210318;28;20289;-68
2023/09/13 13:41:26;;;;;;;1.50;1.40;;;;;;;;;;6207284;28;20300;-68
2023/09/13 13:44:32;;;;;;;3.15;1.30;;;;;;;;;;6208294;28;20300;-70
2023/09/13 13:47:36;;;;;;;1.45;1.20;;;;;;;;;;6208465;28;20300;-70
2023/09/13 13:50:39;;;;;;;2.15;1.50;;;;;;;;;;6208672;28;20304;-69
2023/09/13 13:53:47;;;;;;;3.55;1.42;;;;;;;;;;6207623;28;20304;-69
2023/09/13 13:56:51;;;;;;;2.65;1.10;;;;;;;;;;6223419;28;20308;-70
2023/09/13 13:59:54;;;;;;;1.00;1.00;;;;;;;;;;6208267;28;20613;-69
2023/09/13 14:02:59;;;;;;;1.15;1.15;;;;;;;;;;6208169;28;20320;-68
2023/09/13 14:06:03;;;;;;;2.08;1.80;;;;;;;;;;6207937;28;20265;-70
2023/09/13 14:09:08;;;;;;;1.95;1.95;;;;;;;;;;6207821;28;20344;-69
2023/09/13 14:12:12;;;;;;;2.03;1.92;;;;;;;;;;6223719;28;20277;-69
2023/09/13 14:15:20;;;;;;;1.80;1.80;;;;;;;;;;6207936;28;20309;-68
2023/09/13 14:18:24;;;;;;;5.25;1.70;;;;;;;;;;6208098;28;20565;-68
2023/09/13 14:21:27;;;;;;;1.60;1.50;;;;;;;;;;6207949;28;20304;-67
2023/09/13 14:24:33;;;;;;;5.88;1.90;;;;;;;;;;6207532;28;20372;-69
2023/09/13 14:27:37;;;;;;;3.75;1.90;;;;;;;;;;6207822;28;20296;-69
2023/09/13 14:31:01;;;;;;;2.38;2.20;;;;;;;;;;6223279;28;20293;-69
2023/09/13 14:34:05;;;;;;;2.58;2.28;;;;;;;;;;6227850;28;20327;-71
2023/09/13 14:37:09;;;;;;;2.08;2.08;;;;;;;;;;6242292;28;20517;-68
2023/09/13 14:40:15;;;;;;;1.90;1.52;;;;;;;;;;6247841;28;20304;-70
2023/09/13 14:43:18;;;;;;;1.60;1.60;;;;;;;;;;6242765;28;20604;-67
2023/09/13 14:46:22;;;;;;;1.42;1.33;;;;;;;;;;6256937;28;20303;-72
2023/09/13 14:49:27;;;;;;;1.60;1.50;;;;;;;;;;6256063;28;20596;-66
2023/09/13 14:52:36;;;;;;;3.60;1.25;;;;;;;;;;6256842;28;20323;-69
2023/09/13 14:55:41;;;;;;;1.40;1.30;;;;;;;;;;6255654;28;20331;-69
2023/09/13 14:58:45;;;;;;;1.10;1.10;;;;;;;;;;6255876;28;20300;-69
2023/09/13 15:01:50;;;;;;;1.40;1.30;;;;;;;;;;6256983;28;20371;-68
2023/09/13 15:04:54;;;;;;;1.15;1.15;;;;;;;;;;6256728;28;20402;-69
2023/09/13 15:07:58;;;;;;;1.52;1.30;;;;;;;;;;6259579;28;20720;-69
2023/09/13 15:11:04;;;;;;;1.58;1.40;;;;;;;;;;6260944;28;20576;-69
2023/09/13 15:14:10;;;;;;;3.03;1.30;;;;;;;;;;6260791;28;20303;-68
2023/09/13 15:17:13;;;;;;;1.73;1.60;;;;;;;;;;6261328;28;20295;-68
2023/09/13 15:20:17;;;;;;;5.15;1.45;;;;;;;;;;6260607;28;20307;-69
2023/09/13 15:23:21;;;;;;;2.75;1.55;;;;;;;;;;6260413;28;20323;-71
2023/09/13 15:26:27;;;;;;;4.70;1.50;;;;;;;;;;6261105;28;20311;-68
2023/09/13 15:29:30;;;;;;;1.58;1.48;;;;;;;;;;6260444;28;20291;-68
2023/09/13 15:32:34;;;;;;;6.78;1.50;;;;;;;;;;6260383;28;20299;-69
2023/09/13 15:35:41;;;;;;;1.67;1.33;;;;;;;;;;6260175;28;20303;-68
2023/09/13 15:38:45;;;;;;;4.30;1.80;;;;;;;;;;6259205;28;20308;-74
2023/09/13 15:42:03;;;;;;;2.22;1.42;;;;;;;;;;6259948;28;20284;-67
2023/09/13 15:45:09;;;;;;;1.60;1.50;;;;;;;;;;6260266;28;20292;-69
2023/09/13 15:48:13;;;;;;;4.80;1.52;;;;;;;;;;6260007;28;20335;-69
2023/09/13 15:51:17;;;;;;;2.28;1.38;;;;;;;;;;6260117;28;20255;-70
2023/09/13 15:54:21;;;;;;;3.38;1.35;;;;;;;;;;6257808;28;20493;-71
2023/09/13 15:57:26;;;;;;;1.50;1.40;;;;;;;;;;6259724;28;20299;-69
2023/09/13 16:00:29;;;;;;;2.42;1.75;;;;;;;;;;6274023;28;20470;-70
2023/09/13 16:03:33;;;;;;;2.67;1.27;;;;;;;;;;6259396;28;20560;-69
2023/09/13 16:06:38;;;;;;;4.57;1.50;;;;;;;;;;6259888;28;20303;-70
2023/09/13 16:09:42;;;;;;;7.90;1.58;;;;;;;;;;6258975;28;20296;-68
2023/09/13 16:12:47;;;;;;;1.48;1.48;;;;;;;;;;6258957;28;20295;-69
2023/09/13 16:15:51;;;;;;;7.50;1.65;;;;;;;;;;6259555;28;20296;-68
2023/09/13 16:18:55;;;;;;;2.88;1.50;;;;;;;;;;6274064;28;20422;-69
2023/09/13 16:21:59;;;;;;;4.32;1.65;;;;;;;;;;6258337;28;20303;-69
2023/09/13 16:25:03;;;;;;;3.80;1.30;;;;;;;;;;6257613;28;20485;-69
2023/09/13 16:28:08;;;;;;;2.38;1.80;;;;;;;;;;6258842;28;20299;-67
2023/09/13 16:31:12;;;;;;;2.15;1.60;;;;;;;;;;6260283;28;20359;-69
2023/09/13 16:34:17;;;;;;;3.58;1.60;;;;;;;;;;6255286;28;20323;-68
2023/09/13 16:37:20;;;;;;;4.10;1.83;;;;;;;;;;6258869;28;20291;-69
2023/09/13 16:40:24;;;;;;;1.50;1.50;;;;;;;;;;6256563;28;20299;-68
2023/09/13 16:43:29;;;;;;;1.60;1.60;;;;;;;;;;6258411;28;20584;-67
2023/09/13 16:46:33;;;;;;;3.80;2.85;;;;;;;;;;6258486;28;20508;-70
2023/09/13 16:49:37;;;;;;;2.55;1.60;;;;;;;;;;6258244;28;20295;-68
2023/09/13 16:52:41;;;;;;;1.50;1.38;;;;;;;;;;6257944;28;20303;-69
2023/09/13 16:55:44;;;;;;;4.63;2.55;;;;;;;;;;6258733;28;20303;-69
2023/09/13 16:58:50;;;;;;;2.03;1.50;;;;;;;;;;6257883;28;20295;-72
2023/09/13 17:01:53;;;;;;;4.63;2.05;;;;;;;;;;6258560;28;20303;-70
2023/09/13 17:04:57;;;;;;;1.30;1.30;;;;;;;;;;6258343;28;20311;-69
2023/09/13 17:08:01;;;;;;;3.25;2.28;;;;;;;;;;6258053;28;20307;-68
2023/09/13 17:11:08;;;;;;;1.77;1.67;;;;;;;;;;6258223;28;20303;-70
2023/09/13 17:14:13;;;;;;;1.48;1.48;;;;;;;;;;6258117;28;20303;-69
2023/09/13 17:17:21;;;;;;;2.47;1.33;;;;;;;;;;6258283;28;20303;-69
2023/09/13 17:20:31;;;;;;;1.45;1.35;;;;;;;;;;6257961;28;20370;-68
2023/09/13 17:23:35;;;;;;;3.47;1.52;;;;;;;;;;6257448;28;20550;-69
2023/09/13 17:26:39;;;;;;;2.33;1.30;;;;;;;;;;6258089;28;20299;-69
2023/09/13 17:29:44;;;;;;;1.98;1.60;;;;;;;;;;6257141;28;20304;-68
2023/09/13 17:32:49;;;;;;;1.05;1.05;;;;;;;;;;6257600;28;20316;-73
2023/09/13 17:35:53;;;;;;;1.00;1.00;;;;;;;;;;6257597;28;20300;-70
2023/09/13 17:38:56;;;;;;;1.58;1.55;;;;;;;;;;6255736;28;20322;-69
2023/09/13 17:42:00;;;;;;;2.10;1.63;;;;;;;;;;6256834;28;20300;-71
2023/09/13 17:45:07;;;;;;;1.20;1.20;;;;;;;;;;6257371;28;20299;-69
2023/09/13 17:48:11;;;;;;;1.70;1.60;;;;;;;;;;6256709;28;20368;-69
2023/09/13 17:51:15;;;;;;;3.85;1.73;;;;;;;;;;6257461;28;20272;-69
2023/09/13 17:54:19;;;;;;;2.63;1.40;;;;;;;;;;6255730;28;21814;-70
2023/09/13 17:57:24;;;;;;;3.92;2.00;;;;;;;;;;6257411;28;20303;-71
2023/09/13 18:00:30;;;;;;;2.85;1.60;;;;;;;;;;6256687;28;20302;-69
2023/09/13 18:03:34;;;;;;;1.40;1.17;;;;;;;;;;6257092;28;20475;-72
2023/09/13 18:06:39;;;;;;;1.75;1.65;;;;;;;;;;6257178;28;20292;-70
2023/09/13 18:09:42;;;;;;;3.60;1.90;;;;;;;;;;6256339;28;20335;-72
2023/09/13 18:12:47;;;;;;;1.45;1.30;;;;;;;;;;6256614;28;20304;-72
2023/09/13 18:15:52;;;;;;;3.53;1.40;;;;;;;;;;6257797;28;20592;-72
2023/09/13 18:18:56;;;;;;;3.33;1.40;;;;;;;;;;6257270;28;20303;-70
2023/09/13 18:22:00;;;;;;;1.75;1.40;;;;;;;;;;6256975;28;20588;-71
2023/09/13 18:25:05;;;;;;;2.80;1.20;;;;;;;;;;6256864;28;20296;-70
2023/09/13 18:28:08;;;;;;;4.10;1.27;;;;;;;;;;6256252;28;20311;-70
2023/09/13 18:31:14;;;;;;;3.30;1.67;;;;;;;;;;6256936;28;20307;-70